sensor_id;sensor_type;location;lat;lon;timestamp;P1;durP1;ratioP1;P2;durP2;ratioP2
75272;SDS011;63869;52.344;16.928;2022-10-16T00:01:35;36.30;;;17.65;;
75272;SDS011;63869;52.344;16.928;2022-10-16T00:04:01;30.88;;;15.93;;
75272;SDS011;63869;52.344;16.928;2022-10-16T00:06:28;25.35;;;13.07;;
75272;SDS011;63869;52.344;16.928;2022-10-16T00:08:54;27.40;;;12.88;;
75272;SDS011;63869;52.344;16.928;2022-10-16T00:11:28;31.92;;;14.07;;
75272;SDS011;63869;52.344;16.928;2022-10-16T00:13:56;21.23;;;12.50;;
75272;SDS011;63869;52.344;16.928;2022-10-16T00:16:23;24.35;;;11.90;;
75272;SDS011;63869;52.344;16.928;2022-10-16T00:18:49;23.83;;;12.60;;
75272;SDS011;63869;52.344;16.928;2022-10-16T00:21:16;21.48;;;11.95;;
75272;SDS011;63869;52.344;16.928;2022-10-16T00:23:44;20.55;;;11.93;;
75272;SDS011;63869;52.344;16.928;2022-10-16T00:26:11;22.40;;;10.48;;
75272;SDS011;63869;52.344;16.928;2022-10-16T00:28:41;18.90;;;11.18;;
75272;SDS011;63869;52.344;16.928;2022-10-16T00:31:07;19.63;;;11.43;;
75272;SDS011;63869;52.344;16.928;2022-10-16T00:33:34;20.27;;;11.15;;
75272;SDS011;63869;52.344;16.928;2022-10-16T00:36:00;22.10;;;11.48;;
75272;SDS011;63869;52.344;16.928;2022-10-16T00:38:27;19.92;;;10.75;;
75272;SDS011;63869;52.344;16.928;2022-10-16T00:40:52;18.20;;;10.75;;
75272;SDS011;63869;52.344;16.928;2022-10-16T00:43:34;18.58;;;10.90;;
75272;SDS011;63869;52.344;16.928;2022-10-16T00:46:13;17.67;;;10.20;;
75272;SDS011;63869;52.344;16.928;2022-10-16T00:48:44;19.00;;;10.98;;
75272;SDS011;63869;52.344;16.928;2022-10-16T00:51:15;19.90;;;12.35;;
75272;SDS011;63869;52.344;16.928;2022-10-16T00:53:41;19.30;;;11.48;;
75272;SDS011;63869;52.344;16.928;2022-10-16T00:56:06;22.73;;;13.63;;
75272;SDS011;63869;52.344;16.928;2022-10-16T00:58:31;22.08;;;12.65;;
75272;SDS011;63869;52.344;16.928;2022-10-16T01:00:57;28.25;;;14.60;;
75272;SDS011;63869;52.344;16.928;2022-10-16T01:03:30;23.73;;;12.73;;
75272;SDS011;63869;52.344;16.928;2022-10-16T01:11:48;23.13;;;11.43;;
75272;SDS011;63869;52.344;16.928;2022-10-16T01:14:20;22.13;;;11.30;;
75272;SDS011;63869;52.344;16.928;2022-10-16T01:16:51;18.63;;;10.75;;
75272;SDS011;63869;52.344;16.928;2022-10-16T01:22:33;18.15;;;9.98;;
75272;SDS011;63869;52.344;16.928;2022-10-16T01:25:05;16.98;;;10.05;;
75272;SDS011;63869;52.344;16.928;2022-10-16T01:27:36;16.08;;;9.45;;
75272;SDS011;63869;52.344;16.928;2022-10-16T01:30:07;18.42;;;9.77;;
75272;SDS011;63869;52.344;16.928;2022-10-16T01:32:58;15.05;;;9.35;;
75272;SDS011;63869;52.344;16.928;2022-10-16T01:35:29;16.52;;;9.00;;
75272;SDS011;63869;52.344;16.928;2022-10-16T01:38:03;18.40;;;9.20;;
75272;SDS011;63869;52.344;16.928;2022-10-16T01:40:32;15.93;;;9.40;;
75272;SDS011;63869;52.344;16.928;2022-10-16T01:43:00;15.48;;;9.23;;
75272;SDS011;63869;52.344;16.928;2022-10-16T01:45:33;14.95;;;7.80;;
75272;SDS011;63869;52.344;16.928;2022-10-16T01:48:01;16.48;;;10.00;;
75272;SDS011;63869;52.344;16.928;2022-10-16T01:50:30;17.02;;;9.60;;
75272;SDS011;63869;52.344;16.928;2022-10-16T01:52:59;20.02;;;11.02;;
75272;SDS011;63869;52.344;16.928;2022-10-16T01:55:31;18.17;;;11.15;;
75272;SDS011;63869;52.344;16.928;2022-10-16T01:58:01;19.83;;;11.10;;
75272;SDS011;63869;52.344;16.928;2022-10-16T02:00:29;18.35;;;10.73;;
75272;SDS011;63869;52.344;16.928;2022-10-16T02:02:55;20.95;;;11.15;;
75272;SDS011;63869;52.344;16.928;2022-10-16T02:05:31;18.60;;;10.07;;
75272;SDS011;63869;52.344;16.928;2022-10-16T02:07:59;16.25;;;10.07;;
75272;SDS011;63869;52.344;16.928;2022-10-16T02:10:25;21.13;;;10.75;;
75272;SDS011;63869;52.344;16.928;2022-10-16T02:12:57;21.52;;;10.60;;
75272;SDS011;63869;52.344;16.928;2022-10-16T02:15:35;18.95;;;10.32;;
75272;SDS011;63869;52.344;16.928;2022-10-16T02:18:01;19.35;;;10.13;;
75272;SDS011;63869;52.344;16.928;2022-10-16T02:20:28;18.58;;;9.95;;
75272;SDS011;63869;52.344;16.928;2022-10-16T02:22:59;18.17;;;10.43;;
75272;SDS011;63869;52.344;16.928;2022-10-16T02:25:34;17.20;;;10.27;;
75272;SDS011;63869;52.344;16.928;2022-10-16T02:28:09;16.67;;;10.20;;
75272;SDS011;63869;52.344;16.928;2022-10-16T02:30:50;17.17;;;10.02;;
75272;SDS011;63869;52.344;16.928;2022-10-16T02:33:20;17.92;;;10.75;;
75272;SDS011;63869;52.344;16.928;2022-10-16T02:35:47;19.85;;;10.50;;
75272;SDS011;63869;52.344;16.928;2022-10-16T02:38:15;21.65;;;10.20;;
75272;SDS011;63869;52.344;16.928;2022-10-16T02:40:41;18.58;;;10.52;;
75272;SDS011;63869;52.344;16.928;2022-10-16T02:43:07;18.15;;;11.02;;
75272;SDS011;63869;52.344;16.928;2022-10-16T02:45:33;18.33;;;10.88;;
75272;SDS011;63869;52.344;16.928;2022-10-16T02:47:59;22.35;;;12.43;;
75272;SDS011;63869;52.344;16.928;2022-10-16T02:50:24;19.67;;;12.25;;
75272;SDS011;63869;52.344;16.928;2022-10-16T02:52:50;21.45;;;11.75;;
75272;SDS011;63869;52.344;16.928;2022-10-16T02:55:15;23.05;;;13.23;;
75272;SDS011;63869;52.344;16.928;2022-10-16T02:57:40;32.17;;;16.63;;
75272;SDS011;63869;52.344;16.928;2022-10-16T03:00:07;27.42;;;13.55;;
75272;SDS011;63869;52.344;16.928;2022-10-16T03:02:34;24.20;;;12.45;;
75272;SDS011;63869;52.344;16.928;2022-10-16T03:04:59;21.17;;;11.35;;
75272;SDS011;63869;52.344;16.928;2022-10-16T03:07:24;19.95;;;11.13;;
75272;SDS011;63869;52.344;16.928;2022-10-16T03:09:49;19.90;;;11.13;;
75272;SDS011;63869;52.344;16.928;2022-10-16T03:12:15;22.58;;;11.57;;
75272;SDS011;63869;52.344;16.928;2022-10-16T03:14:40;21.63;;;11.75;;
75272;SDS011;63869;52.344;16.928;2022-10-16T03:17:05;21.63;;;11.38;;
75272;SDS011;63869;52.344;16.928;2022-10-16T03:19:31;20.73;;;10.73;;
75272;SDS011;63869;52.344;16.928;2022-10-16T03:21:56;17.67;;;11.30;;
75272;SDS011;63869;52.344;16.928;2022-10-16T03:24:22;22.08;;;11.80;;
75272;SDS011;63869;52.344;16.928;2022-10-16T03:26:47;19.05;;;11.32;;
75272;SDS011;63869;52.344;16.928;2022-10-16T03:29:12;18.88;;;11.18;;
75272;SDS011;63869;52.344;16.928;2022-10-16T03:31:38;19.40;;;11.15;;
75272;SDS011;63869;52.344;16.928;2022-10-16T03:34:03;18.08;;;11.40;;
75272;SDS011;63869;52.344;16.928;2022-10-16T03:36:28;19.17;;;11.05;;
75272;SDS011;63869;52.344;16.928;2022-10-16T03:38:54;20.38;;;12.02;;
75272;SDS011;63869;52.344;16.928;2022-10-16T03:41:19;18.13;;;11.88;;
75272;SDS011;63869;52.344;16.928;2022-10-16T03:43:45;22.73;;;12.68;;
75272;SDS011;63869;52.344;16.928;2022-10-16T03:46:10;19.17;;;10.02;;
75272;SDS011;63869;52.344;16.928;2022-10-16T03:48:36;24.15;;;13.65;;
75272;SDS011;63869;52.344;16.928;2022-10-16T03:51:01;29.17;;;13.80;;
75272;SDS011;63869;52.344;16.928;2022-10-16T03:53:27;25.63;;;14.27;;
75272;SDS011;63869;52.344;16.928;2022-10-16T03:55:52;23.63;;;12.38;;
75272;SDS011;63869;52.344;16.928;2022-10-16T03:58:17;20.20;;;11.38;;
75272;SDS011;63869;52.344;16.928;2022-10-16T04:00:43;25.25;;;12.00;;
75272;SDS011;63869;52.344;16.928;2022-10-16T04:03:10;23.33;;;11.95;;
75272;SDS011;63869;52.344;16.928;2022-10-16T04:05:35;18.48;;;11.35;;
75272;SDS011;63869;52.344;16.928;2022-10-16T04:08:01;21.83;;;11.40;;
75272;SDS011;63869;52.344;16.928;2022-10-16T04:10:26;20.83;;;11.38;;
75272;SDS011;63869;52.344;16.928;2022-10-16T04:12:52;23.00;;;11.73;;
75272;SDS011;63869;52.344;16.928;2022-10-16T04:15:19;19.48;;;11.43;;
75272;SDS011;63869;52.344;16.928;2022-10-16T04:17:45;20.17;;;10.73;;
75272;SDS011;63869;52.344;16.928;2022-10-16T04:20:10;21.42;;;11.70;;
75272;SDS011;63869;52.344;16.928;2022-10-16T04:22:35;18.17;;;10.52;;
75272;SDS011;63869;52.344;16.928;2022-10-16T04:25:00;19.65;;;11.23;;
75272;SDS011;63869;52.344;16.928;2022-10-16T04:27:26;19.70;;;11.95;;
75272;SDS011;63869;52.344;16.928;2022-10-16T04:29:51;20.00;;;12.20;;
75272;SDS011;63869;52.344;16.928;2022-10-16T04:32:16;19.23;;;11.40;;
75272;SDS011;63869;52.344;16.928;2022-10-16T04:34:42;20.75;;;11.88;;
75272;SDS011;63869;52.344;16.928;2022-10-16T04:37:07;17.85;;;10.73;;
75272;SDS011;63869;52.344;16.928;2022-10-16T04:39:32;19.15;;;10.90;;
75272;SDS011;63869;52.344;16.928;2022-10-16T04:41:57;21.30;;;12.30;;
75272;SDS011;63869;52.344;16.928;2022-10-16T04:44:23;25.83;;;13.32;;
75272;SDS011;63869;52.344;16.928;2022-10-16T04:46:50;18.52;;;10.63;;
75272;SDS011;63869;52.344;16.928;2022-10-16T04:49:15;22.13;;;11.82;;
75272;SDS011;63869;52.344;16.928;2022-10-16T04:51:40;21.80;;;12.88;;
75272;SDS011;63869;52.344;16.928;2022-10-16T04:54:06;24.90;;;13.35;;
75272;SDS011;63869;52.344;16.928;2022-10-16T04:56:31;21.52;;;12.00;;
75272;SDS011;63869;52.344;16.928;2022-10-16T04:58:56;20.23;;;10.93;;
75272;SDS011;63869;52.344;16.928;2022-10-16T05:01:22;18.33;;;11.48;;
75272;SDS011;63869;52.344;16.928;2022-10-16T05:03:47;21.52;;;11.10;;
75272;SDS011;63869;52.344;16.928;2022-10-16T05:06:12;22.50;;;11.80;;
75272;SDS011;63869;52.344;16.928;2022-10-16T05:08:37;19.55;;;10.52;;
75272;SDS011;63869;52.344;16.928;2022-10-16T05:11:03;21.17;;;11.55;;
75272;SDS011;63869;52.344;16.928;2022-10-16T05:13:28;21.30;;;11.48;;
75272;SDS011;63869;52.344;16.928;2022-10-16T05:15:54;20.33;;;10.75;;
75272;SDS011;63869;52.344;16.928;2022-10-16T05:18:19;20.00;;;10.63;;
75272;SDS011;63869;52.344;16.928;2022-10-16T05:20:44;19.38;;;10.18;;
75272;SDS011;63869;52.344;16.928;2022-10-16T05:23:10;18.73;;;11.13;;
75272;SDS011;63869;52.344;16.928;2022-10-16T05:25:36;18.05;;;10.55;;
75272;SDS011;63869;52.344;16.928;2022-10-16T05:28:02;24.25;;;15.43;;
75272;SDS011;63869;52.344;16.928;2022-10-16T05:30:28;24.33;;;15.82;;
75272;SDS011;63869;52.344;16.928;2022-10-16T05:32:53;34.60;;;23.13;;
75272;SDS011;63869;52.344;16.928;2022-10-16T05:35:18;42.03;;;31.70;;
75272;SDS011;63869;52.344;16.928;2022-10-16T05:37:44;23.20;;;13.50;;
75272;SDS011;63869;52.344;16.928;2022-10-16T05:40:10;19.73;;;10.82;;
75272;SDS011;63869;52.344;16.928;2022-10-16T05:42:37;20.42;;;12.65;;
75272;SDS011;63869;52.344;16.928;2022-10-16T05:45:03;34.33;;;18.52;;
75272;SDS011;63869;52.344;16.928;2022-10-16T05:47:30;29.48;;;17.85;;
75272;SDS011;63869;52.344;16.928;2022-10-16T05:49:55;30.27;;;18.60;;
75272;SDS011;63869;52.344;16.928;2022-10-16T05:52:20;20.70;;;12.13;;
75272;SDS011;63869;52.344;16.928;2022-10-16T05:54:46;21.90;;;13.93;;
75272;SDS011;63869;52.344;16.928;2022-10-16T05:57:11;29.85;;;17.65;;
75272;SDS011;63869;52.344;16.928;2022-10-16T05:59:36;26.05;;;14.70;;
75272;SDS011;63869;52.344;16.928;2022-10-16T06:02:02;21.90;;;13.38;;
75272;SDS011;63869;52.344;16.928;2022-10-16T06:04:27;28.63;;;16.25;;
75272;SDS011;63869;52.344;16.928;2022-10-16T06:06:52;39.42;;;20.27;;
75272;SDS011;63869;52.344;16.928;2022-10-16T06:09:17;38.10;;;18.13;;
75272;SDS011;63869;52.344;16.928;2022-10-16T06:11:43;22.17;;;12.65;;
75272;SDS011;63869;52.344;16.928;2022-10-16T06:14:08;20.30;;;13.18;;
75272;SDS011;63869;52.344;16.928;2022-10-16T06:16:34;23.10;;;14.50;;
75272;SDS011;63869;52.344;16.928;2022-10-16T06:19:01;20.70;;;11.50;;
75272;SDS011;63869;52.344;16.928;2022-10-16T06:21:31;21.95;;;13.60;;
75272;SDS011;63869;52.344;16.928;2022-10-16T06:23:56;31.42;;;18.60;;
75272;SDS011;63869;52.344;16.928;2022-10-16T06:26:24;27.85;;;15.05;;
75272;SDS011;63869;52.344;16.928;2022-10-16T06:28:50;29.58;;;16.98;;
75272;SDS011;63869;52.344;16.928;2022-10-16T06:31:16;21.42;;;12.55;;
75272;SDS011;63869;52.344;16.928;2022-10-16T06:33:42;27.27;;;15.13;;
75272;SDS011;63869;52.344;16.928;2022-10-16T06:36:14;34.97;;;18.98;;
75272;SDS011;63869;52.344;16.928;2022-10-16T06:38:41;25.58;;;15.98;;
75272;SDS011;63869;52.344;16.928;2022-10-16T06:41:08;27.88;;;17.10;;
75272;SDS011;63869;52.344;16.928;2022-10-16T06:43:36;38.35;;;23.20;;
75272;SDS011;63869;52.344;16.928;2022-10-16T06:46:02;42.03;;;23.63;;
75272;SDS011;63869;52.344;16.928;2022-10-16T06:48:28;43.50;;;23.13;;
75272;SDS011;63869;52.344;16.928;2022-10-16T06:53:32;33.78;;;20.63;;
75272;SDS011;63869;52.344;16.928;2022-10-16T06:56:06;26.98;;;15.52;;
75272;SDS011;63869;52.344;16.928;2022-10-16T06:58:41;23.27;;;14.17;;
75272;SDS011;63869;52.344;16.928;2022-10-16T07:01:07;22.77;;;14.43;;
75272;SDS011;63869;52.344;16.928;2022-10-16T07:03:35;20.90;;;14.35;;
75272;SDS011;63869;52.344;16.928;2022-10-16T07:06:02;19.48;;;13.23;;
75272;SDS011;63869;52.344;16.928;2022-10-16T07:08:32;23.80;;;13.88;;
75272;SDS011;63869;52.344;16.928;2022-10-16T07:10:59;19.55;;;12.90;;
75272;SDS011;63869;52.344;16.928;2022-10-16T07:13:25;30.17;;;18.55;;
75272;SDS011;63869;52.344;16.928;2022-10-16T07:15:51;27.80;;;17.20;;
75272;SDS011;63869;52.344;16.928;2022-10-16T07:18:16;35.53;;;20.92;;
75272;SDS011;63869;52.344;16.928;2022-10-16T07:20:41;17.90;;;11.63;;
75272;SDS011;63869;52.344;16.928;2022-10-16T07:23:07;17.15;;;11.20;;
75272;SDS011;63869;52.344;16.928;2022-10-16T07:25:32;26.55;;;14.18;;
75272;SDS011;63869;52.344;16.928;2022-10-16T07:27:57;17.25;;;11.57;;
75272;SDS011;63869;52.344;16.928;2022-10-16T07:30:22;19.55;;;12.32;;
75272;SDS011;63869;52.344;16.928;2022-10-16T07:32:48;16.25;;;11.05;;
75272;SDS011;63869;52.344;16.928;2022-10-16T07:35:14;16.42;;;11.13;;
75272;SDS011;63869;52.344;16.928;2022-10-16T07:37:39;17.52;;;11.30;;
75272;SDS011;63869;52.344;16.928;2022-10-16T07:40:04;19.52;;;12.13;;
75272;SDS011;63869;52.344;16.928;2022-10-16T07:42:30;17.27;;;11.52;;
75272;SDS011;63869;52.344;16.928;2022-10-16T07:44:55;20.08;;;12.68;;
75272;SDS011;63869;52.344;16.928;2022-10-16T07:47:21;20.50;;;12.32;;
75272;SDS011;63869;52.344;16.928;2022-10-16T07:49:46;21.73;;;13.07;;
75272;SDS011;63869;52.344;16.928;2022-10-16T07:52:11;16.92;;;10.57;;
75272;SDS011;63869;52.344;16.928;2022-10-16T07:54:37;16.02;;;10.60;;
75272;SDS011;63869;52.344;16.928;2022-10-16T07:57:02;21.40;;;12.10;;
75272;SDS011;63869;52.344;16.928;2022-10-16T07:59:27;15.10;;;9.88;;
75272;SDS011;63869;52.344;16.928;2022-10-16T08:01:52;13.27;;;8.43;;
75272;SDS011;63869;52.344;16.928;2022-10-16T08:04:18;15.75;;;9.65;;
75272;SDS011;63869;52.344;16.928;2022-10-16T08:06:43;14.70;;;9.82;;
75272;SDS011;63869;52.344;16.928;2022-10-16T08:09:08;13.20;;;9.43;;
75272;SDS011;63869;52.344;16.928;2022-10-16T08:11:34;15.48;;;10.27;;
75272;SDS011;63869;52.344;16.928;2022-10-16T08:13:59;18.77;;;12.27;;
75272;SDS011;63869;52.344;16.928;2022-10-16T08:16:25;13.55;;;9.30;;
75272;SDS011;63869;52.344;16.928;2022-10-16T08:18:50;16.98;;;9.73;;
75272;SDS011;63869;52.344;16.928;2022-10-16T08:21:16;22.05;;;15.40;;
75272;SDS011;63869;52.344;16.928;2022-10-16T08:23:43;15.43;;;11.70;;
75272;SDS011;63869;52.344;16.928;2022-10-16T08:26:10;12.20;;;9.40;;
75272;SDS011;63869;52.344;16.928;2022-10-16T08:28:36;12.23;;;8.57;;
75272;SDS011;63869;52.344;16.928;2022-10-16T08:31:08;12.65;;;8.10;;
75272;SDS011;63869;52.344;16.928;2022-10-16T08:33:38;12.70;;;8.68;;
75272;SDS011;63869;52.344;16.928;2022-10-16T08:36:05;13.05;;;9.57;;
75272;SDS011;63869;52.344;16.928;2022-10-16T08:38:31;16.25;;;8.90;;
75272;SDS011;63869;52.344;16.928;2022-10-16T08:41:01;16.23;;;8.23;;
75272;SDS011;63869;52.344;16.928;2022-10-16T08:43:55;13.25;;;9.40;;
75272;SDS011;63869;52.344;16.928;2022-10-16T08:48:59;12.05;;;7.88;;
75272;SDS011;63869;52.344;16.928;2022-10-16T08:51:29;10.85;;;7.38;;
75272;SDS011;63869;52.344;16.928;2022-10-16T08:53:56;12.30;;;7.60;;
75272;SDS011;63869;52.344;16.928;2022-10-16T08:56:23;9.43;;;7.55;;
75272;SDS011;63869;52.344;16.928;2022-10-16T08:58:50;17.95;;;8.90;;
75272;SDS011;63869;52.344;16.928;2022-10-16T09:01:17;15.95;;;8.40;;
75272;SDS011;63869;52.344;16.928;2022-10-16T09:12:01;9.63;;;6.75;;
75272;SDS011;63869;52.344;16.928;2022-10-16T09:22:39;12.38;;;7.75;;
75272;SDS011;63869;52.344;16.928;2022-10-16T09:25:10;14.32;;;9.43;;
75272;SDS011;63869;52.344;16.928;2022-10-16T09:27:38;10.93;;;7.20;;
75272;SDS011;63869;52.344;16.928;2022-10-16T09:30:10;9.70;;;7.10;;
75272;SDS011;63869;52.344;16.928;2022-10-16T09:32:37;12.68;;;7.72;;
75272;SDS011;63869;52.344;16.928;2022-10-16T09:35:04;8.70;;;6.47;;
75272;SDS011;63869;52.344;16.928;2022-10-16T09:37:37;7.18;;;6.05;;
75272;SDS011;63869;52.344;16.928;2022-10-16T09:40:03;9.98;;;7.00;;
75272;SDS011;63869;52.344;16.928;2022-10-16T09:42:33;15.45;;;9.45;;
75272;SDS011;63869;52.344;16.928;2022-10-16T09:45:00;18.77;;;10.52;;
75272;SDS011;63869;52.344;16.928;2022-10-16T09:47:26;10.45;;;6.40;;
75272;SDS011;63869;52.344;16.928;2022-10-16T09:49:57;10.85;;;6.05;;
75272;SDS011;63869;52.344;16.928;2022-10-16T09:54:59;7.72;;;5.82;;
75272;SDS011;63869;52.344;16.928;2022-10-16T09:57:27;9.13;;;6.05;;
75272;SDS011;63869;52.344;16.928;2022-10-16T09:59:55;8.07;;;6.00;;
75272;SDS011;63869;52.344;16.928;2022-10-16T10:02:33;8.57;;;5.90;;
75272;SDS011;63869;52.344;16.928;2022-10-16T10:05:00;9.15;;;5.45;;
75272;SDS011;63869;52.344;16.928;2022-10-16T10:07:27;9.27;;;6.65;;
75272;SDS011;63869;52.344;16.928;2022-10-16T10:09:58;7.50;;;6.22;;
75272;SDS011;63869;52.344;16.928;2022-10-16T10:12:28;11.70;;;8.20;;
75272;SDS011;63869;52.344;16.928;2022-10-16T10:14:55;7.97;;;5.93;;
75272;SDS011;63869;52.344;16.928;2022-10-16T10:17:23;8.57;;;6.13;;
75272;SDS011;63869;52.344;16.928;2022-10-16T10:19:51;11.68;;;6.72;;
75272;SDS011;63869;52.344;16.928;2022-10-16T10:44:20;7.32;;;5.70;;
75272;SDS011;63869;52.344;16.928;2022-10-16T10:46:50;7.85;;;5.78;;
75272;SDS011;63869;52.344;16.928;2022-10-16T10:49:22;7.78;;;5.93;;
75272;SDS011;63869;52.344;16.928;2022-10-16T10:52:05;8.57;;;6.25;;
75272;SDS011;63869;52.344;16.928;2022-10-16T10:57:22;8.98;;;5.93;;
75272;SDS011;63869;52.344;16.928;2022-10-16T10:59:55;8.20;;;5.40;;
75272;SDS011;63869;52.344;16.928;2022-10-16T11:02:58;7.63;;;5.45;;
75272;SDS011;63869;52.344;16.928;2022-10-16T11:05:40;7.22;;;5.30;;
75272;SDS011;63869;52.344;16.928;2022-10-16T11:08:18;7.90;;;6.30;;
75272;SDS011;63869;52.344;16.928;2022-10-16T11:10:49;10.27;;;6.55;;
75272;SDS011;63869;52.344;16.928;2022-10-16T11:14:01;5.78;;;4.95;;
75272;SDS011;63869;52.344;16.928;2022-10-16T11:16:39;6.70;;;4.68;;
75272;SDS011;63869;52.344;16.928;2022-10-16T11:19:19;7.13;;;4.85;;
75272;SDS011;63869;52.344;16.928;2022-10-16T11:21:53;6.90;;;5.15;;
75272;SDS011;63869;52.344;16.928;2022-10-16T11:27:16;6.85;;;5.43;;
75272;SDS011;63869;52.344;16.928;2022-10-16T11:29:49;8.32;;;6.03;;
75272;SDS011;63869;52.344;16.928;2022-10-16T11:32:35;7.05;;;4.63;;
75272;SDS011;63869;52.344;16.928;2022-10-16T11:35:21;5.30;;;4.57;;
75272;SDS011;63869;52.344;16.928;2022-10-16T11:37:50;5.30;;;4.38;;
75272;SDS011;63869;52.344;16.928;2022-10-16T11:40:31;5.18;;;4.22;;
75272;SDS011;63869;52.344;16.928;2022-10-16T11:43:02;4.15;;;3.50;;
75272;SDS011;63869;52.344;16.928;2022-10-16T11:45:57;5.50;;;3.83;;
75272;SDS011;63869;52.344;16.928;2022-10-16T11:53:45;6.95;;;4.75;;
75272;SDS011;63869;52.344;16.928;2022-10-16T11:56:17;6.85;;;4.53;;
75272;SDS011;63869;52.344;16.928;2022-10-16T11:59:05;8.80;;;5.25;;
75272;SDS011;63869;52.344;16.928;2022-10-16T12:01:40;7.80;;;5.00;;
75272;SDS011;63869;52.344;16.928;2022-10-16T12:07:11;7.25;;;5.50;;
75272;SDS011;63869;52.344;16.928;2022-10-16T12:09:40;5.07;;;4.00;;
75272;SDS011;63869;52.344;16.928;2022-10-16T12:12:37;5.57;;;4.10;;
75272;SDS011;63869;52.344;16.928;2022-10-16T12:15:24;5.20;;;4.30;;
75272;SDS011;63869;52.344;16.928;2022-10-16T12:17:54;6.20;;;4.10;;
75272;SDS011;63869;52.344;16.928;2022-10-16T12:20:22;6.00;;;3.97;;
75272;SDS011;63869;52.344;16.928;2022-10-16T12:22:59;4.75;;;4.03;;
75272;SDS011;63869;52.344;16.928;2022-10-16T12:25:36;12.55;;;4.28;;
75272;SDS011;63869;52.344;16.928;2022-10-16T12:28:21;7.22;;;4.22;;
75272;SDS011;63869;52.344;16.928;2022-10-16T12:30:54;7.20;;;4.47;;
75272;SDS011;63869;52.344;16.928;2022-10-16T12:33:23;3.50;;;2.85;;
75272;SDS011;63869;52.344;16.928;2022-10-16T12:35:49;4.95;;;2.95;;
75272;SDS011;63869;52.344;16.928;2022-10-16T12:38:19;4.00;;;2.70;;
75272;SDS011;63869;52.344;16.928;2022-10-16T12:40:46;4.60;;;3.00;;
75272;SDS011;63869;52.344;16.928;2022-10-16T12:45:46;3.73;;;2.70;;
75272;SDS011;63869;52.344;16.928;2022-10-16T12:48:19;3.08;;;2.75;;
75272;SDS011;63869;52.344;16.928;2022-10-16T12:50:46;4.13;;;3.00;;
75272;SDS011;63869;52.344;16.928;2022-10-16T12:53:19;4.10;;;3.15;;
75272;SDS011;63869;52.344;16.928;2022-10-16T12:56:14;4.13;;;3.10;;
75272;SDS011;63869;52.344;16.928;2022-10-16T12:59:04;5.22;;;3.53;;
75272;SDS011;63869;52.344;16.928;2022-10-16T13:04:57;3.95;;;2.90;;
75272;SDS011;63869;52.344;16.928;2022-10-16T13:10:25;4.18;;;3.10;;
75272;SDS011;63869;52.344;16.928;2022-10-16T13:29:32;6.57;;;4.50;;
75272;SDS011;63869;52.344;16.928;2022-10-16T13:31:59;4.25;;;3.05;;
75272;SDS011;63869;52.344;16.928;2022-10-16T13:34:26;5.60;;;3.83;;
75272;SDS011;63869;52.344;16.928;2022-10-16T13:36:52;14.05;;;6.18;;
75272;SDS011;63869;52.344;16.928;2022-10-16T13:39:23;17.80;;;9.00;;
75272;SDS011;63869;52.344;16.928;2022-10-16T13:42:10;6.20;;;3.90;;
75272;SDS011;63869;52.344;16.928;2022-10-16T13:44:52;5.65;;;3.90;;
75272;SDS011;63869;52.344;16.928;2022-10-16T13:47:19;5.35;;;3.90;;
75272;SDS011;63869;52.344;16.928;2022-10-16T13:49:58;31.67;;;5.53;;
75272;SDS011;63869;52.344;16.928;2022-10-16T13:52:44;5.72;;;4.13;;
75272;SDS011;63869;52.344;16.928;2022-10-16T13:55:13;5.28;;;4.15;;
75272;SDS011;63869;52.344;16.928;2022-10-16T13:57:40;6.68;;;4.00;;
75272;SDS011;63869;52.344;16.928;2022-10-16T14:00:23;5.43;;;3.72;;
75272;SDS011;63869;52.344;16.928;2022-10-16T14:03:01;4.60;;;3.63;;
75272;SDS011;63869;52.344;16.928;2022-10-16T14:05:29;6.07;;;4.88;;
75272;SDS011;63869;52.344;16.928;2022-10-16T14:07:55;4.70;;;4.20;;
75272;SDS011;63869;52.344;16.928;2022-10-16T14:10:25;7.68;;;5.07;;
75272;SDS011;63869;52.344;16.928;2022-10-16T14:12:55;8.82;;;5.70;;
75272;SDS011;63869;52.344;16.928;2022-10-16T14:15:23;9.40;;;7.25;;
75272;SDS011;63869;52.344;16.928;2022-10-16T14:17:49;6.53;;;5.68;;
75272;SDS011;63869;52.344;16.928;2022-10-16T14:20:16;6.85;;;5.30;;
75272;SDS011;63869;52.344;16.928;2022-10-16T14:22:42;14.65;;;13.25;;
75272;SDS011;63869;52.344;16.928;2022-10-16T14:30:28;7.47;;;5.70;;
75272;SDS011;63869;52.344;16.928;2022-10-16T14:32:59;6.53;;;5.45;;
75272;SDS011;63869;52.344;16.928;2022-10-16T14:35:33;7.30;;;6.70;;
75272;SDS011;63869;52.344;16.928;2022-10-16T14:38:04;5.55;;;4.40;;
75272;SDS011;63869;52.344;16.928;2022-10-16T14:40:32;18.02;;;10.18;;
75272;SDS011;63869;52.344;16.928;2022-10-16T14:42:59;14.50;;;9.30;;
75272;SDS011;63869;52.344;16.928;2022-10-16T14:45:27;14.85;;;9.20;;
75272;SDS011;63869;52.344;16.928;2022-10-16T14:47:58;14.02;;;10.60;;
75272;SDS011;63869;52.344;16.928;2022-10-16T14:50:25;11.85;;;8.23;;
75272;SDS011;63869;52.344;16.928;2022-10-16T14:52:50;14.32;;;7.53;;
75272;SDS011;63869;52.344;16.928;2022-10-16T14:55:16;15.65;;;8.02;;
75272;SDS011;63869;52.344;16.928;2022-10-16T14:57:42;11.43;;;7.70;;
75272;SDS011;63869;52.344;16.928;2022-10-16T15:00:19;11.90;;;5.88;;
75272;SDS011;63869;52.344;16.928;2022-10-16T15:02:47;11.88;;;5.82;;
75272;SDS011;63869;52.344;16.928;2022-10-16T15:07:39;8.37;;;4.97;;
75272;SDS011;63869;52.344;16.928;2022-10-16T15:10:04;9.45;;;4.72;;
75272;SDS011;63869;52.344;16.928;2022-10-16T15:12:30;7.85;;;4.93;;
75272;SDS011;63869;52.344;16.928;2022-10-16T15:14:55;6.25;;;4.85;;
75272;SDS011;63869;52.344;16.928;2022-10-16T15:17:20;9.07;;;6.05;;
75272;SDS011;63869;52.344;16.928;2022-10-16T15:19:46;7.70;;;5.53;;
75272;SDS011;63869;52.344;16.928;2022-10-16T15:22:11;13.68;;;6.50;;
75272;SDS011;63869;52.344;16.928;2022-10-16T15:24:37;9.15;;;5.80;;
75272;SDS011;63869;52.344;16.928;2022-10-16T15:27:02;9.90;;;6.25;;
75272;SDS011;63869;52.344;16.928;2022-10-16T15:29:27;10.57;;;6.50;;
75272;SDS011;63869;52.344;16.928;2022-10-16T15:31:53;11.83;;;7.07;;
75272;SDS011;63869;52.344;16.928;2022-10-16T15:34:18;12.77;;;7.60;;
75272;SDS011;63869;52.344;16.928;2022-10-16T15:36:44;10.40;;;6.25;;
75272;SDS011;63869;52.344;16.928;2022-10-16T15:39:12;12.60;;;8.35;;
75272;SDS011;63869;52.344;16.928;2022-10-16T15:41:41;13.13;;;8.45;;
75272;SDS011;63869;52.344;16.928;2022-10-16T15:44:07;17.70;;;10.00;;
75272;SDS011;63869;52.344;16.928;2022-10-16T15:46:33;27.13;;;13.13;;
75272;SDS011;63869;52.344;16.928;2022-10-16T15:48:59;41.78;;;21.83;;
75272;SDS011;63869;52.344;16.928;2022-10-16T15:51:25;39.20;;;19.55;;
75272;SDS011;63869;52.344;16.928;2022-10-16T15:53:54;35.53;;;18.80;;
75272;SDS011;63869;52.344;16.928;2022-10-16T15:56:21;19.20;;;11.35;;
75272;SDS011;63869;52.344;16.928;2022-10-16T15:58:47;18.60;;;11.73;;
75272;SDS011;63869;52.344;16.928;2022-10-16T16:01:12;21.63;;;11.23;;
75272;SDS011;63869;52.344;16.928;2022-10-16T16:03:38;16.77;;;10.45;;
75272;SDS011;63869;52.344;16.928;2022-10-16T16:06:08;16.88;;;11.43;;
75272;SDS011;63869;52.344;16.928;2022-10-16T16:08:36;18.58;;;10.25;;
75272;SDS011;63869;52.344;16.928;2022-10-16T16:11:03;29.83;;;15.80;;